sensor_id;sensor_type;location;lat;lon;timestamp;pressure;altitude;pressure_sealevel;temperature;humidity
12360;BME280;6244;51.460;7.090;2023-02-13T00:02:10;102775.59;;;8.88;70.84
12360;BME280;6244;51.460;7.090;2023-02-13T00:07:06;102772.09;;;8.88;70.89
12360;BME280;6244;51.460;7.090;2023-02-13T00:12:03;102760.75;;;8.89;70.61
12360;BME280;6244;51.460;7.090;2023-02-13T00:17:01;102761.63;;;8.88;71.05
12360;BME280;6244;51.460;7.090;2023-02-13T00:21:58;102750.31;;;8.87;70.77
12360;BME280;6244;51.460;7.090;2023-02-13T00:26:54;102749.44;;;8.87;70.71
12360;BME280;6244;51.460;7.090;2023-02-13T00:31:51;102751.19;;;8.86;70.77
12360;BME280;6244;51.460;7.090;2023-02-13T00:36:49;102745.97;;;8.85;70.67
12360;BME280;6244;51.460;7.090;2023-02-13T00:41:45;102739.84;;;8.86;70.78
12360;BME280;6244;51.460;7.090;2023-02-13T00:46:42;102746.84;;;8.85;70.83
12360;BME280;6244;51.460;7.090;2023-02-13T00:51:38;102755.56;;;8.86;70.78
12360;BME280;6244;51.460;7.090;2023-02-13T00:56:36;102745.09;;;8.86;70.63
12360;BME280;6244;51.460;7.090;2023-02-13T01:01:32;102742.47;;;8.84;71.06
12360;BME280;6244;51.460;7.090;2023-02-13T01:06:29;102746.84;;;8.83;70.86
12360;BME280;6244;51.460;7.090;2023-02-13T01:11:25;102743.34;;;8.85;71.10
12360;BME280;6244;51.460;7.090;2023-02-13T01:16:23;102747.69;;;8.86;71.09
12360;BME280;6244;51.460;7.090;2023-02-13T01:21:21;102743.38;;;8.83;70.96
12360;BME280;6244;51.460;7.090;2023-02-13T01:26:19;102744.22;;;8.83;71.02
12360;BME280;6244;51.460;7.090;2023-02-13T01:31:16;102746.00;;;8.83;70.97
12360;BME280;6244;51.460;7.090;2023-02-13T01:36:14;102739.88;;;8.82;71.30
12360;BME280;6244;51.460;7.090;2023-02-13T01:41:11;102739.88;;;8.82;70.65
12360;BME280;6244;51.460;7.090;2023-02-13T01:46:10;102739.88;;;8.82;71.06
12360;BME280;6244;51.460;7.090;2023-02-13T01:51:13;102734.66;;;8.81;70.99
12360;BME280;6244;51.460;7.090;2023-02-13T01:56:17;102737.28;;;8.78;70.78
12360;BME280;6244;51.460;7.090;2023-02-13T02:01:15;102728.56;;;8.79;70.82
12360;BME280;6244;51.460;7.090;2023-02-13T02:06:16;102725.94;;;8.79;70.64
12360;BME280;6244;51.460;7.090;2023-02-13T02:11:21;102719.00;;;8.76;70.75
12360;BME280;6244;51.460;7.090;2023-02-13T02:16:21;102720.69;;;8.79;70.91
12360;BME280;6244;51.460;7.090;2023-02-13T02:21:55;102717.25;;;8.75;70.88
12360;BME280;6244;51.460;7.090;2023-02-13T02:27:17;102716.41;;;8.73;70.83
12360;BME280;6244;51.460;7.090;2023-02-13T02:32:32;102717.25;;;8.75;70.92
12360;BME280;6244;51.460;7.090;2023-02-13T02:37:43;102713.78;;;8.75;70.90
12360;BME280;6244;51.460;7.090;2023-02-13T02:42:56;102720.75;;;8.76;70.68
12360;BME280;6244;51.460;7.090;2023-02-13T02:47:59;102714.63;;;8.77;70.61
12360;BME280;6244;51.460;7.090;2023-02-13T02:53:25;102718.13;;;8.76;70.85
12360;BME280;6244;51.460;7.090;2023-02-13T02:58:31;102706.81;;;8.74;70.60
12360;BME280;6244;51.460;7.090;2023-02-13T03:03:48;102715.53;;;8.74;70.89
12360;BME280;6244;51.460;7.090;2023-02-13T03:09:05;102722.50;;;8.74;70.62
12360;BME280;6244;51.460;7.090;2023-02-13T03:14:24;102712.03;;;8.74;70.71
12360;BME280;6244;51.460;7.090;2023-02-13T03:19:30;102715.53;;;8.73;70.82
12360;BME280;6244;51.460;7.090;2023-02-13T03:24:52;102719.91;;;8.72;70.89
12360;BME280;6244;51.460;7.090;2023-02-13T03:29:59;102726.03;;;8.71;70.89
12360;BME280;6244;51.460;7.090;2023-02-13T03:35:18;102725.19;;;8.69;70.58
12360;BME280;6244;51.460;7.090;2023-02-13T03:40:37;102722.56;;;8.71;70.88
12360;BME280;6244;51.460;7.090;2023-02-13T03:45:58;102722.56;;;8.69;70.92
12360;BME280;6244;51.460;7.090;2023-02-13T03:50:59;102733.03;;;8.68;70.99
12360;BME280;6244;51.460;7.090;2023-02-13T03:55:58;102735.66;;;8.68;70.50
12360;BME280;6244;51.460;7.090;2023-02-13T04:01:17;102732.16;;;8.67;70.54
12360;BME280;6244;51.460;7.090;2023-02-13T04:06:20;102740.00;;;8.67;70.83
12360;BME280;6244;51.460;7.090;2023-02-13T04:11:23;102734.81;;;8.66;70.15
12360;BME280;6244;51.460;7.090;2023-02-13T04:16:23;102738.28;;;8.66;70.82
12360;BME280;6244;51.460;7.090;2023-02-13T04:21:25;102734.81;;;8.66;70.77
12360;BME280;6244;51.460;7.090;2023-02-13T04:26:22;102725.19;;;8.66;70.49
12360;BME280;6244;51.460;7.090;2023-02-13T04:31:19;102722.63;;;8.63;70.50
12360;BME280;6244;51.460;7.090;2023-02-13T04:36:15;102733.09;;;8.63;70.92
12360;BME280;6244;51.460;7.090;2023-02-13T04:41:13;102729.59;;;8.64;70.79
12360;BME280;6244;51.460;7.090;2023-02-13T04:46:10;102731.34;;;8.64;70.43
12360;BME280;6244;51.460;7.090;2023-02-13T04:51:07;102728.72;;;8.64;70.81
12360;BME280;6244;51.460;7.090;2023-02-13T04:56:03;102725.25;;;8.62;70.69
12360;BME280;6244;51.460;7.090;2023-02-13T05:01:02;102719.16;;;8.61;70.53
12360;BME280;6244;51.460;7.090;2023-02-13T05:05:58;102720.91;;;8.61;70.82
12360;BME280;6244;51.460;7.090;2023-02-13T05:10:55;102716.56;;;8.60;70.86
12360;BME280;6244;51.460;7.090;2023-02-13T05:15:51;102713.06;;;8.59;70.51
12360;BME280;6244;51.460;7.090;2023-02-13T05:20:49;102719.19;;;8.60;70.48
12360;BME280;6244;51.460;7.090;2023-02-13T05:25:59;102715.69;;;8.59;70.46
12360;BME280;6244;51.460;7.090;2023-02-13T05:30:56;102706.09;;;8.58;70.44
12360;BME280;6244;51.460;7.090;2023-02-13T05:35:54;102707.84;;;8.58;70.71
12360;BME280;6244;51.460;7.090;2023-02-13T05:40:50;102709.63;;;8.54;70.84
12360;BME280;6244;51.460;7.090;2023-02-13T05:45:47;102706.13;;;8.55;71.00
12360;BME280;6244;51.460;7.090;2023-02-13T05:50:45;102705.25;;;8.54;70.70
12360;BME280;6244;51.460;7.090;2023-02-13T05:55:43;102706.13;;;8.55;70.58
12360;BME280;6244;51.460;7.090;2023-02-13T06:00:39;102714.84;;;8.54;70.95
12360;BME280;6244;51.460;7.090;2023-02-13T06:05:36;102720.09;;;8.54;71.02
12360;BME280;6244;51.460;7.090;2023-02-13T06:10:32;102713.97;;;8.53;71.05
12360;BME280;6244;51.460;7.090;2023-02-13T06:15:30;102712.25;;;8.52;70.63
12360;BME280;6244;51.460;7.090;2023-02-13T06:20:26;102707.94;;;8.50;71.17
12360;BME280;6244;51.460;7.090;2023-02-13T06:25:23;102695.72;;;8.49;70.65
12360;BME280;6244;51.460;7.090;2023-02-13T06:30:20;102695.75;;;8.47;71.01
12360;BME280;6244;51.460;7.090;2023-02-13T06:35:18;102699.25;;;8.45;70.88
12360;BME280;6244;51.460;7.090;2023-02-13T06:40:15;102694.91;;;8.42;70.66
12360;BME280;6244;51.460;7.090;2023-02-13T06:45:12;102697.56;;;8.39;70.76
12360;BME280;6244;51.460;7.090;2023-02-13T06:50:10;102692.34;;;8.36;70.37
12360;BME280;6244;51.460;7.090;2023-02-13T06:55:08;102701.09;;;8.32;70.55
12360;BME280;6244;51.460;7.090;2023-02-13T07:00:07;102697.59;;;8.30;70.61
12360;BME280;6244;51.460;7.090;2023-02-13T07:05:07;102695.88;;;8.28;70.31
12360;BME280;6244;51.460;7.090;2023-02-13T07:10:06;102707.22;;;8.27;70.47
12360;BME280;6244;51.460;7.090;2023-02-13T07:15:04;102704.66;;;8.22;69.97
12360;BME280;6244;51.460;7.090;2023-02-13T07:20:03;102716.88;;;8.21;70.24
12360;BME280;6244;51.460;7.090;2023-02-13T07:25:00;102714.25;;;8.18;69.73
12360;BME280;6244;51.460;7.090;2023-02-13T07:29:56;102717.78;;;8.16;70.15
12360;BME280;6244;51.460;7.090;2023-02-13T07:34:54;102716.03;;;8.15;69.71
12360;BME280;6244;51.460;7.090;2023-02-13T07:39:51;102716.91;;;8.14;70.12
12360;BME280;6244;51.460;7.090;2023-02-13T07:44:47;102718.69;;;8.10;69.99
12360;BME280;6244;51.460;7.090;2023-02-13T07:49:44;102730.91;;;8.10;70.19
12360;BME280;6244;51.460;7.090;2023-02-13T07:54:42;102724.84;;;8.08;70.38
12360;BME280;6244;51.460;7.090;2023-02-13T07:59:42;102725.69;;;8.05;70.27
12360;BME280;6244;51.460;7.090;2023-02-13T08:04:38;102740.50;;;8.05;70.47
12360;BME280;6244;51.460;7.090;2023-02-13T08:09:35;102744.91;;;8.01;70.50
12360;BME280;6244;51.460;7.090;2023-02-13T08:14:52;102743.19;;;8.00;70.72
12360;BME280;6244;51.460;7.090;2023-02-13T08:19:48;102742.31;;;7.98;70.61
12360;BME280;6244;51.460;7.090;2023-02-13T08:24:45;102742.34;;;7.97;70.49
12360;BME280;6244;51.460;7.090;2023-02-13T08:29:41;102736.25;;;7.96;71.12
12360;BME280;6244;51.460;7.090;2023-02-13T08:34:46;102739.72;;;7.92;71.05
12360;BME280;6244;51.460;7.090;2023-02-13T08:39:46;102744.09;;;7.93;70.92
12360;BME280;6244;51.460;7.090;2023-02-13T08:44:43;102742.34;;;7.92;71.24
12360;BME280;6244;51.460;7.090;2023-02-13T08:49:39;102734.53;;;7.90;71.33
12360;BME280;6244;51.460;7.090;2023-02-13T08:54:38;102736.28;;;7.90;71.58
12360;BME280;6244;51.460;7.090;2023-02-13T08:59:35;102741.50;;;7.90;71.92
12360;BME280;6244;51.460;7.090;2023-02-13T09:04:31;102737.13;;;7.90;71.57
12360;BME280;6244;51.460;7.090;2023-02-13T09:09:28;102744.09;;;7.90;71.62
12360;BME280;6244;51.460;7.090;2023-02-13T09:14:26;102737.13;;;7.90;71.90
12360;BME280;6244;51.460;7.090;2023-02-13T09:19:23;102744.94;;;7.93;71.50
12360;BME280;6244;51.460;7.090;2023-02-13T09:24:19;102743.22;;;7.95;71.66
12360;BME280;6244;51.460;7.090;2023-02-13T09:29:16;102731.00;;;7.98;71.57
12360;BME280;6244;51.460;7.090;2023-02-13T09:34:14;102737.06;;;8.03;71.59
12360;BME280;6244;51.460;7.090;2023-02-13T09:39:10;102744.00;;;8.05;71.70
12360;BME280;6244;51.460;7.090;2023-02-13T09:44:11;102729.19;;;8.09;71.36
12360;BME280;6244;51.460;7.090;2023-02-13T09:49:31;102733.47;;;8.14;71.29
12360;BME280;6244;51.460;7.090;2023-02-13T09:54:28;102740.41;;;8.21;70.96
12360;BME280;6244;51.460;7.090;2023-02-13T09:59:44;102747.34;;;8.25;70.66
12360;BME280;6244;51.460;7.090;2023-02-13T10:04:48;102747.28;;;8.33;70.46
12360;BME280;6244;51.460;7.090;2023-02-13T10:09:54;102754.22;;;8.42;70.54
12360;BME280;6244;51.460;7.090;2023-02-13T10:15:06;102748.91;;;8.51;70.22
12360;BME280;6244;51.460;7.090;2023-02-13T10:20:19;102749.72;;;8.59;69.66
12360;BME280;6244;51.460;7.090;2023-02-13T10:25:21;102752.19;;;8.73;69.37
12360;BME280;6244;51.460;7.090;2023-02-13T10:30:21;102752.94;;;8.86;68.55
12360;BME280;6244;51.460;7.090;2023-02-13T10:35:23;102742.34;;;8.96;68.17
12360;BME280;6244;51.460;7.090;2023-02-13T10:40:23;102746.56;;;9.09;68.10
12360;BME280;6244;51.460;7.090;2023-02-13T10:45:43;102736.81;;;9.22;67.61
12360;BME280;6244;51.460;7.090;2023-02-13T10:50:47;102747.03;;;9.40;66.91
12360;BME280;6244;51.460;7.090;2023-02-13T10:55:57;102732.91;;;9.55;66.08
12360;BME280;6244;51.460;7.090;2023-02-13T11:00:58;102723.00;;;9.74;65.76
12360;BME280;6244;51.460;7.090;2023-02-13T11:05:59;102714.00;;;9.90;65.05
12360;BME280;6244;51.460;7.090;2023-02-13T11:11:00;102712.88;;;10.08;64.48
12360;BME280;6244;51.460;7.090;2023-02-13T11:16:00;102701.25;;;10.24;63.80
12360;BME280;6244;51.460;7.090;2023-02-13T11:21:00;102693.09;;;10.41;63.26
12360;BME280;6244;51.460;7.090;2023-02-13T11:25:59;102691.03;;;10.58;62.70
12360;BME280;6244;51.460;7.090;2023-02-13T11:31:09;102684.66;;;10.72;62.18
12360;BME280;6244;51.460;7.090;2023-02-13T11:36:09;102686.91;;;10.90;61.67
12360;BME280;6244;51.460;7.090;2023-02-13T11:41:11;102673.47;;;11.07;60.82
12360;BME280;6244;51.460;7.090;2023-02-13T11:46:15;102676.63;;;11.23;60.80
12360;BME280;6244;51.460;7.090;2023-02-13T11:51:13;102675.41;;;11.37;59.92
12360;BME280;6244;51.460;7.090;2023-02-13T11:56:12;102668.94;;;11.52;59.76
12360;BME280;6244;51.460;7.090;2023-02-13T12:01:22;102661.63;;;11.65;58.79
12360;BME280;6244;51.460;7.090;2023-02-13T12:06:21;102655.97;;;11.83;57.63
12360;BME280;6244;51.460;7.090;2023-02-13T12:11:21;102653.84;;;11.99;57.27
12360;BME280;6244;51.460;7.090;2023-02-13T12:16:25;102651.88;;;12.07;57.06
12360;BME280;6244;51.460;7.090;2023-02-13T12:21:35;102641.13;;;12.16;56.97
12360;BME280;6244;51.460;7.090;2023-02-13T12:26:38;102628.59;;;12.24;56.78
12360;BME280;6244;51.460;7.090;2023-02-13T12:31:46;102636.13;;;12.38;56.35
12360;BME280;6244;51.460;7.090;2023-02-13T12:36:57;102616.50;;;12.50;56.08
12360;BME280;6244;51.460;7.090;2023-02-13T12:42:15;102612.75;;;12.58;55.91
12360;BME280;6244;51.460;7.090;2023-02-13T12:47:17;102604.38;;;12.75;55.65
12360;BME280;6244;51.460;7.090;2023-02-13T12:52:26;102594.44;;;12.85;55.13
12360;BME280;6244;51.460;7.090;2023-02-13T12:57:38;102597.50;;;12.99;55.01
12360;BME280;6244;51.460;7.090;2023-02-13T13:08:33;102580.16;;;13.21;54.62
12360;BME280;6244;51.460;7.090;2023-02-13T13:13:38;102579.69;;;13.37;54.14
12360;BME280;6244;51.460;7.090;2023-02-13T13:18:48;102576.69;;;13.47;53.60
12360;BME280;6244;51.460;7.090;2023-02-13T13:23:52;102575.50;;;13.58;53.69
12360;BME280;6244;51.460;7.090;2023-02-13T13:28:52;102569.69;;;13.73;53.62
12360;BME280;6244;51.460;7.090;2023-02-13T13:33:50;102559.66;;;13.84;53.19
12360;BME280;6244;51.460;7.090;2023-02-13T13:38:56;102556.81;;;13.90;53.09
12360;BME280;6244;51.460;7.090;2023-02-13T13:44:13;102552.97;;;13.99;52.94
12360;BME280;6244;51.460;7.090;2023-02-13T13:49:19;102550.06;;;14.06;52.37
12360;BME280;6244;51.460;7.090;2023-02-13T13:54:32;102547.25;;;14.11;52.01
12360;BME280;6244;51.460;7.090;2023-02-13T13:59:55;102540.06;;;14.16;52.18
12360;BME280;6244;51.460;7.090;2023-02-13T14:05:18;102538.91;;;14.23;51.92
12360;BME280;6244;51.460;7.090;2023-02-13T14:16:05;102530.47;;;14.37;51.80
12360;BME280;6244;51.460;7.090;2023-02-13T14:21:10;102526.97;;;14.36;51.58
12360;BME280;6244;51.460;7.090;2023-02-13T14:26:12;102524.25;;;14.38;51.63
12360;BME280;6244;51.460;7.090;2023-02-13T14:31:20;102504.19;;;14.34;51.19
12360;BME280;6244;51.460;7.090;2023-02-13T14:36:20;102513.69;;;14.38;51.42
12360;BME280;6244;51.460;7.090;2023-02-13T14:41:42;102516.56;;;14.32;51.25
12360;BME280;6244;51.460;7.090;2023-02-13T14:46:43;102517.56;;;14.29;51.22
12360;BME280;6244;51.460;7.090;2023-02-13T14:51:45;102508.94;;;14.24;51.41
12360;BME280;6244;51.460;7.090;2023-02-13T14:56:44;102506.47;;;14.20;51.62
12360;BME280;6244;51.460;7.090;2023-02-13T15:01:46;102501.41;;;14.14;51.44
12360;BME280;6244;51.460;7.090;2023-02-13T15:06:44;102506.00;;;14.08;51.85
12360;BME280;6244;51.460;7.090;2023-02-13T15:11:43;102505.31;;;14.03;52.28
12360;BME280;6244;51.460;7.090;2023-02-13T15:16:39;102500.22;;;13.97;52.42
12360;BME280;6244;51.460;7.090;2023-02-13T15:21:37;102500.47;;;13.91;52.50
12360;BME280;6244;51.460;7.090;2023-02-13T15:26:34;102507.78;;;13.83;52.83
12360;BME280;6244;51.460;7.090;2023-02-13T15:31:31;102494.84;;;13.75;53.43
12360;BME280;6244;51.460;7.090;2023-02-13T15:36:33;102495.19;;;13.66;53.66
12360;BME280;6244;51.460;7.090;2023-02-13T15:41:33;102488.44;;;13.58;54.21
12360;BME280;6244;51.460;7.090;2023-02-13T15:46:33;102486.91;;;13.52;54.42
12360;BME280;6244;51.460;7.090;2023-02-13T15:51:30;102491.50;;;13.45;54.75
12360;BME280;6244;51.460;7.090;2023-02-13T15:56:29;102493.53;;;13.37;54.94
12360;BME280;6244;51.460;7.090;2023-02-13T16:01:27;102490.38;;;13.26;55.33
12360;BME280;6244;51.460;7.090;2023-02-13T16:06:24;102490.72;;;13.15;55.64
12360;BME280;6244;51.460;7.090;2023-02-13T16:11:26;102489.22;;;13.07;55.97
12360;BME280;6244;51.460;7.090;2023-02-13T16:16:23;102503.44;;;13.01;56.20
12360;BME280;6244;51.460;7.090;2023-02-13T16:21:22;102495.81;;;12.93;56.44
12360;BME280;6244;51.460;7.090;2023-02-13T16:26:20;102491.63;;;12.86;56.74
12360;BME280;6244;51.460;7.090;2023-02-13T16:31:16;102490.13;;;12.79;57.05
12360;BME280;6244;51.460;7.090;2023-02-13T16:36:23;102498.25;;;12.72;57.16
12360;BME280;6244;51.460;7.090;2023-02-13T16:41:31;102489.69;;;12.63;57.42
12360;BME280;6244;51.460;7.090;2023-02-13T16:46:32;102491.66;;;12.57;57.82
12360;BME280;6244;51.460;7.090;2023-02-13T16:51:31;102495.38;;;12.50;58.07
12360;BME280;6244;51.460;7.090;2023-02-13T16:56:38;102495.69;;;12.41;58.26
12360;BME280;6244;51.460;7.090;2023-02-13T17:01:35;102502.81;;;12.35;58.66
12360;BME280;6244;51.460;7.090;2023-02-13T17:06:32;102510.97;;;12.28;58.87
12360;BME280;6244;51.460;7.090;2023-02-13T17:11:28;102517.25;;;12.22;58.95
12360;BME280;6244;51.460;7.090;2023-02-13T17:16:26;102521.78;;;12.17;59.05
12360;BME280;6244;51.460;7.090;2023-02-13T17:21:23;102516.69;;;12.11;59.42
12360;BME280;6244;51.460;7.090;2023-02-13T17:26:19;102526.47;;;12.06;59.40
12360;BME280;6244;51.460;7.090;2023-02-13T17:31:26;102539.84;;;11.98;59.54
12360;BME280;6244;51.460;7.090;2023-02-13T17:36:23;102538.28;;;11.91;59.73
12360;BME280;6244;51.460;7.090;2023-02-13T17:41:20;102547.13;;;11.87;59.82
12360;BME280;6244;51.460;7.090;2023-02-13T17:46:17;102547.28;;;11.83;59.66
12360;BME280;6244;51.460;7.090;2023-02-13T17:51:15;102541.25;;;11.76;60.66
12360;BME280;6244;51.460;7.090;2023-02-13T17:56:12;102540.13;;;11.88;60.91
12360;BME280;6244;51.460;7.090;2023-02-13T18:01:08;102541.38;;;12.07;60.75
12360;BME280;6244;51.460;7.090;2023-02-13T18:06:05;102537.44;;;12.22;60.64
12360;BME280;6244;51.460;7.090;2023-02-13T18:11:10;102525.72;;;12.33;60.33
12360;BME280;6244;51.460;7.090;2023-02-13T18:16:07;102536.78;;;12.45;60.01
12360;BME280;6244;51.460;7.090;2023-02-13T18:21:04;102541.06;;;12.49;59.80
12360;BME280;6244;51.460;7.090;2023-02-13T18:26:05;102543.59;;;12.52;59.44
12360;BME280;6244;51.460;7.090;2023-02-13T18:31:03;102539.13;;;12.55;59.33
12360;BME280;6244;51.460;7.090;2023-02-13T18:36:01;102541.75;;;12.55;59.22
12360;BME280;6244;51.460;7.090;2023-02-13T18:40:58;102537.34;;;12.56;59.11
12360;BME280;6244;51.460;7.090;2023-02-13T18:45:55;102533.00;;;12.55;58.94
12360;BME280;6244;51.460;7.090;2023-02-13T18:50:53;102533.91;;;12.52;58.90
12360;BME280;6244;51.460;7.090;2023-02-13T18:55:58;102528.78;;;12.48;58.98
12360;BME280;6244;51.460;7.090;2023-02-13T19:00:54;102531.47;;;12.46;58.71
12360;BME280;6244;51.460;7.090;2023-02-13T19:05:51;102531.56;;;12.43;58.76
12360;BME280;6244;51.460;7.090;2023-02-13T19:10:49;102532.56;;;12.39;58.61
12360;BME280;6244;51.460;7.090;2023-02-13T19:15:46;102543.22;;;12.34;58.45
12360;BME280;6244;51.460;7.090;2023-02-13T19:20:42;102534.56;;;12.31;58.75
12360;BME280;6244;51.460;7.090;2023-02-13T19:25:39;102535.56;;;12.25;58.87
12360;BME280;6244;51.460;7.090;2023-02-13T19:30:36;102530.44;;;12.21;58.97
12360;BME280;6244;51.460;7.090;2023-02-13T19:35:33;102541.06;;;12.18;59.15
12360;BME280;6244;51.460;7.090;2023-02-13T19:40:30;102533.28;;;12.13;59.17
12360;BME280;6244;51.460;7.090;2023-02-13T19:45:26;102540.44;;;12.08;59.20
12360;BME280;6244;51.460;7.090;2023-02-13T19:50:24;102538.81;;;12.04;59.35
12360;BME280;6244;51.460;7.090;2023-02-13T19:55:21;102544.22;;;11.98;59.52
12360;BME280;6244;51.460;7.090;2023-02-13T20:00:20;102547.84;;;11.94;59.45
12360;BME280;6244;51.460;7.090;2023-02-13T20:05:16;102551.50;;;11.88;59.39
12360;BME280;6244;51.460;7.090;2023-02-13T20:10:14;102545.47;;;11.85;59.42
12360;BME280;6244;51.460;7.090;2023-02-13T20:15:11;102542.09;;;11.80;59.85
12360;BME280;6244;51.460;7.090;2023-02-13T20:20:08;102536.91;;;11.75;59.41
12360;BME280;6244;51.460;7.090;2023-02-13T20:25:05;102537.03;;;11.70;59.65
12360;BME280;6244;51.460;7.090;2023-02-13T20:30:04;102534.53;;;11.66;59.81
12360;BME280;6244;51.460;7.090;2023-02-13T20:35:01;102531.13;;;11.61;59.88
12360;BME280;6244;51.460;7.090;2023-02-13T20:39:57;102540.09;;;11.54;59.95
12360;BME280;6244;51.460;7.090;2023-02-13T20:44:54;102534.00;;;11.52;60.14
12360;BME280;6244;51.460;7.090;2023-02-13T20:49:52;102533.25;;;11.46;60.04
12360;BME280;6244;51.460;7.090;2023-02-13T20:54:48;102532.53;;;11.41;60.19
12360;BME280;6244;51.460;7.090;2023-02-13T20:59:45;102523.00;;;11.36;60.31
12360;BME280;6244;51.460;7.090;2023-02-13T21:04:41;102524.00;;;11.32;60.46
12360;BME280;6244;51.460;7.090;2023-02-13T21:09:39;102521.50;;;11.26;60.33
12360;BME280;6244;51.460;7.090;2023-02-13T21:14:36;102520.75;;;11.21;60.43
12360;BME280;6244;51.460;7.090;2023-02-13T21:19:34;102525.22;;;11.17;60.54
12360;BME280;6244;51.460;7.090;2023-02-13T21:24:30;102524.44;;;11.12;60.89
12360;BME280;6244;51.460;7.090;2023-02-13T21:29:29;102538.56;;;11.08;60.62
12360;BME280;6244;51.460;7.090;2023-02-13T21:34:28;102532.56;;;11.01;60.82
12360;BME280;6244;51.460;7.090;2023-02-13T21:39:24;102537.03;;;10.98;60.79
12360;BME280;6244;51.460;7.090;2023-02-13T21:44:21;102528.38;;;10.94;60.66
12360;BME280;6244;51.460;7.090;2023-02-13T21:49:18;102530.19;;;10.91;60.68
12360;BME280;6244;51.460;7.090;2023-02-13T21:54:15;102535.56;;;10.86;60.87
12360;BME280;6244;51.460;7.090;2023-02-13T21:59:14;102520.81;;;10.80;60.71
12360;BME280;6244;51.460;7.090;2023-02-13T22:04:10;102518.28;;;10.76;60.79
12360;BME280;6244;51.460;7.090;2023-02-13T22:09:10;102518.38;;;10.71;60.67
12360;BME280;6244;51.460;7.090;2023-02-13T22:14:10;102521.97;;;10.66;60.91
12360;BME280;6244;51.460;7.090;2023-02-13T22:19:06;102519.47;;;10.61;60.58
12360;BME280;6244;51.460;7.090;2023-02-13T22:24:03;102527.41;;;10.58;60.76
12360;BME280;6244;51.460;7.090;2023-02-13T22:29:03;102517.91;;;10.52;60.71
12360;BME280;6244;51.460;7.090;2023-02-13T22:34:00;102525.88;;;10.48;60.68
12360;BME280;6244;51.460;7.090;2023-02-13T22:38:57;102524.22;;;10.44;60.65
12360;BME280;6244;51.460;7.090;2023-02-13T22:43:54;102524.25;;;10.41;60.57
12360;BME280;6244;51.460;7.090;2023-02-13T22:48:52;102522.63;;;10.35;60.68
12360;BME280;6244;51.460;7.090;2023-02-13T22:53:51;102521.03;;;10.28;60.48
12360;BME280;6244;51.460;7.090;2023-02-13T22:58:47;102531.59;;;10.25;60.38
12360;BME280;6244;51.460;7.090;2023-02-13T23:03:44;102525.53;;;10.20;60.27
12360;BME280;6244;51.460;7.090;2023-02-13T23:08:42;102522.13;;;10.15;60.42
12360;BME280;6244;51.460;7.090;2023-02-13T23:13:39;102530.09;;;10.10;60.46
12360;BME280;6244;51.460;7.090;2023-02-13T23:18:36;102524.06;;;10.07;60.38
12360;BME280;6244;51.460;7.090;2023-02-13T23:23:34;102524.13;;;10.02;60.59
12360;BME280;6244;51.460;7.090;2023-02-13T23:28:33;102524.22;;;9.97;60.66
12360;BME280;6244;51.460;7.090;2023-02-13T23:33:29;102526.94;;;9.93;60.32
12360;BME280;6244;51.460;7.090;2023-02-13T23:38:27;102529.66;;;9.87;60.40
12360;BME280;6244;51.460;7.090;2023-02-13T23:43:24;102530.59;;;9.84;60.40
12360;BME280;6244;51.460;7.090;2023-02-13T23:48:24;102517.53;;;9.80;60.41
12360;BME280;6244;51.460;7.090;2023-02-13T23:53:42;102521.16;;;9.74;60.50
12360;BME280;6244;51.460;7.090;2023-02-13T23:58:39;102516.00;;;9.69;60.46
